Time;durP1;ratioP1;P1;durP2;ratioP2;P2;SDS_P1;SDS_P2;PMS_P1;PMS_P2;Temp;Humidity;BMP_temperature;BMP_pressure;BME280_temperature;BME280_humidity;BME280_pressure;Samples;Min_cycle;Max_cycle;Signal;HPM_P1;HPM_P2
2024/03/23 00:00:06;;;;;;;1.35;1.25;;;8.10;99.90;;;;;;5019049;28;20044;-92
2024/03/23 00:02:38;;;;;;;1.92;1.67;;;8.10;99.90;;;;;;5058498;28;20041;-92
2024/03/23 00:05:06;;;;;;;1.27;1.05;;;8.10;99.90;;;;;;5050595;28;20104;-87
2024/03/23 00:07:35;;;;;;;2.85;1.95;;;8.20;99.90;;;;;;5040789;28;20026;-94
2024/03/23 00:10:04;;;;;;;2.90;1.83;;;8.10;99.90;;;;;;5040763;28;20040;-94
2024/03/23 00:12:31;;;;;;;2.90;1.73;;;8.10;99.90;;;;;;5029838;28;20030;-95
2024/03/23 00:14:58;;;;;;;2.38;1.98;;;8.10;99.90;;;;;;5029442;28;20045;-95
2024/03/23 00:17:26;;;;;;;1.10;1.08;;;8.10;99.90;;;;;;5043804;28;20059;-95
2024/03/23 00:19:53;;;;;;;0.40;0.40;;;8.10;99.90;;;;;;5031835;28;20038;-92
2024/03/23 00:22:20;;;;;;;1.80;1.52;;;8.10;99.90;;;;;;5024482;28;20065;-94
2024/03/23 00:24:48;;;;;;;1.52;0.82;;;8.00;99.90;;;;;;5044066;28;20044;-94
2024/03/23 00:27:16;;;;;;;0.93;0.93;;;8.10;99.90;;;;;;5029656;28;20030;-94
2024/03/23 00:29:43;;;;;;;1.10;1.00;;;8.00;99.90;;;;;;5053298;28;20022;-90
2024/03/23 00:32:10;;;;;;;1.13;0.90;;;8.20;99.90;;;;;;5048958;28;20050;-86
2024/03/23 00:34:38;;;;;;;0.70;0.70;;;8.10;99.90;;;;;;4998686;28;20077;-90
2024/03/23 00:37:05;;;;;;;2.05;1.85;;;8.20;99.90;;;;;;5014035;28;20045;-92
2024/03/23 00:39:32;;;;;;;3.95;1.67;;;8.30;99.90;;;;;;5064148;28;20033;-94
2024/03/23 00:42:00;;;;;;;7.85;1.55;;;8.30;99.90;;;;;;5049476;28;20029;-94
2024/03/23 00:44:27;;;;;;;1.75;1.65;;;8.30;99.90;;;;;;5073680;23;20277;-87
2024/03/23 00:46:55;;;;;;;1.40;1.30;;;8.30;99.90;;;;;;5038985;28;20036;-91
2024/03/23 00:49:22;;;;;;;1.85;1.75;;;8.30;99.90;;;;;;5010613;28;20029;-92
2024/03/23 00:51:49;;;;;;;1.48;1.38;;;8.20;99.90;;;;;;5046621;28;20048;-90
2024/03/23 00:54:16;;;;;;;0.98;0.98;;;8.20;99.90;;;;;;5054371;23;20037;-86
2024/03/23 00:56:43;;;;;;;1.00;1.00;;;8.20;99.90;;;;;;5035328;28;20048;-88
2024/03/23 00:59:09;;;;;;;0.90;0.73;;;8.40;99.90;;;;;;5054166;28;20025;-89
2024/03/23 01:01:36;;;;;;;2.17;1.10;;;8.50;99.90;;;;;;5034808;28;20049;-92
2024/03/23 01:04:03;;;;;;;1.30;1.23;;;8.60;99.90;;;;;;5036279;28;20032;-92
2024/03/23 01:06:29;;;;;;;1.55;0.95;;;8.70;99.90;;;;;;5030718;28;20042;-92
2024/03/23 01:08:56;;;;;;;1.50;1.40;;;8.80;99.90;;;;;;5027652;28;20037;-94
2024/03/23 01:11:22;;;;;;;0.47;0.47;;;8.90;99.90;;;;;;5045542;28;20044;-94
2024/03/23 01:13:49;;;;;;;2.83;1.90;;;9.00;99.90;;;;;;5036425;28;20052;-93
2024/03/23 01:16:15;;;;;;;2.10;1.88;;;9.10;99.90;;;;;;5053197;28;20031;-94
2024/03/23 01:18:41;;;;;;;1.35;1.25;;;9.20;99.90;;;;;;5050119;28;20035;-94
2024/03/23 01:21:07;;;;;;;1.20;1.17;;;9.40;99.90;;;;;;5025845;28;20041;-87
2024/03/23 01:23:34;;;;;;;1.02;1.00;;;9.50;99.90;;;;;;5027451;28;20042;-95
2024/03/23 01:26:00;;;;;;;1.95;1.85;;;9.60;99.90;;;;;;5043351;28;20044;-94
2024/03/23 01:28:26;;;;;;;2.25;1.20;;;9.70;99.90;;;;;;5047069;28;20018;-94
2024/03/23 01:30:53;;;;;;;1.48;0.43;;;9.70;99.90;;;;;;5050676;28;20025;-87
2024/03/23 01:33:19;;;;;;;3.63;2.50;;;9.80;99.90;;;;;;5055713;28;20044;-89
2024/03/23 01:35:46;;;;;;;2.05;1.15;;;9.80;99.90;;;;;;5042390;28;20046;-90
2024/03/23 01:38:12;;;;;;;1.45;1.05;;;9.90;99.90;;;;;;5056078;28;20044;-90
2024/03/23 01:40:38;;;;;;;3.10;1.17;;;10.00;99.90;;;;;;5048340;28;20044;-92
2024/03/23 01:43:10;;;;;;;2.03;1.75;;;9.90;99.90;;;;;;5044996;28;20033;-94
2024/03/23 01:45:37;;;;;;;0.30;0.30;;;9.90;99.90;;;;;;5021738;28;20052;-92
2024/03/23 01:48:04;;;;;;;1.40;1.20;;;10.00;99.90;;;;;;5038950;28;20033;-91
2024/03/23 01:50:34;;;;;;;4.80;1.98;;;10.00;99.90;;;;;;5019461;28;20044;-93
2024/03/23 01:53:02;;;;;;;0.73;0.68;;;10.00;99.90;;;;;;5036410;28;20048;-93
2024/03/23 01:55:29;;;;;;;1.08;0.98;;;10.10;91.10;;;;;;5020913;28;20068;-93
2024/03/23 01:57:57;;;;;;;7.30;2.40;;;10.10;82.60;;;;;;5042060;28;20430;-92
2024/03/23 02:00:24;;;;;;;1.48;1.23;;;10.10;80.10;;;;;;5044040;28;20047;-92
2024/03/23 02:02:51;;;;;;;1.40;0.98;;;10.10;74.20;;;;;;5040689;28;20033;-92
2024/03/23 02:05:17;;;;;;;1.17;1.08;;;10.00;73.50;;;;;;5012144;28;20052;-91
2024/03/23 02:07:43;;;;;;;1.38;1.30;;;10.00;90.80;;;;;;5021359;28;20030;-94
2024/03/23 02:10:13;;;;;;;1.63;1.05;;;10.00;96.50;;;;;;5020795;28;20038;-87
2024/03/23 02:12:39;;;;;;;0.70;0.70;;;9.90;99.90;;;;;;5040916;28;20034;-93
2024/03/23 02:15:06;;;;;;;1.88;1.77;;;9.90;99.90;;;;;;5024286;28;20092;-92
2024/03/23 02:17:34;;;;;;;2.72;1.27;;;9.90;99.90;;;;;;5017310;28;20044;-94
2024/03/23 02:20:00;;;;;;;1.75;0.43;;;9.80;99.90;;;;;;5001081;28;20038;-94
2024/03/23 02:22:37;;;;;;;1.75;1.10;;;9.90;99.90;;;;;;5037348;28;20032;-94
2024/03/23 02:25:05;;;;;;;0.70;0.63;;;9.90;99.90;;;;;;5035924;28;20037;-88
2024/03/23 02:27:32;;;;;;;1.45;1.35;;;10.10;99.90;;;;;;5026866;28;20053;-94
2024/03/23 02:29:58;;;;;;;0.50;0.50;;;10.40;91.70;;;;;;5016813;28;20038;-94
2024/03/23 02:32:25;;;;;;;2.45;2.22;;;10.80;16.70;;;;;;5036220;28;20064;-92
2024/03/23 02:34:51;;;;;;;0.60;0.60;;;11.10;1.00;;;;;;5037177;28;20060;-94
2024/03/23 02:37:17;;;;;;;0.50;0.50;;;11.20;1.00;;;;;;5027090;28;20037;-94
2024/03/23 02:39:43;;;;;;;1.38;1.17;;;11.40;1.00;;;;;;5038305;28;20030;-93
2024/03/23 02:42:10;;;;;;;2.33;1.67;;;11.40;1.00;;;;;;5052757;28;20014;-90
2024/03/23 02:44:36;;;;;;;0.70;0.70;;;11.60;1.00;;;;;;5029874;28;20047;-94
2024/03/23 02:47:02;;;;;;;1.55;1.45;;;11.60;99.90;;;;;;5033213;28;20033;-94
2024/03/23 02:49:29;;;;;;;1.85;1.33;;;11.70;99.90;;;;;;5003086;28;20046;-93
2024/03/23 02:51:55;;;;;;;5.57;1.63;;;11.70;99.90;;;;;;5025288;28;20041;-94
2024/03/23 02:54:21;;;;;;;1.15;0.98;;;11.80;99.90;;;;;;5035910;28;20045;-92
2024/03/23 02:56:47;;;;;;;5.30;1.58;;;11.90;99.90;;;;;;5034425;28;20044;-88
2024/03/23 02:59:14;;;;;;;6.38;2.15;;;11.90;99.90;;;;;;5036568;28;20048;-86
2024/03/23 03:01:40;;;;;;;1.73;1.50;;;12.00;99.90;;;;;;5044780;28;20025;-90
2024/03/23 03:04:06;;;;;;;4.55;1.58;;;12.00;99.90;;;;;;5030009;28;20048;-89
2024/03/23 03:06:32;;;;;;;2.58;1.52;;;12.10;99.90;;;;;;5033318;28;20049;-93
2024/03/23 03:08:59;;;;;;;2.63;1.92;;;12.10;99.90;;;;;;5036225;28;20033;-94
2024/03/23 03:11:25;;;;;;;1.38;1.10;;;12.20;99.90;;;;;;5035486;28;20022;-90
2024/03/23 03:13:51;;;;;;;2.00;1.48;;;12.20;49.20;;;;;;5036477;28;20033;-90
2024/03/23 03:16:17;;;;;;;1.00;1.00;;;12.40;1.00;;;;;;5018218;28;20038;-91
2024/03/23 03:18:46;;;;;;;5.68;2.60;;;12.50;1.00;;;;;;5035718;28;20029;-89
2024/03/23 03:21:12;;;;;;;1.23;1.00;;;12.50;1.00;;;;;;5035772;28;20045;-89
2024/03/23 03:23:39;;;;;;;3.60;1.83;;;12.60;1.00;;;;;;5036376;28;20044;-91
2024/03/23 03:26:06;;;;;;;0.85;0.85;;;12.50;1.00;;;;;;5035311;28;20034;-91
2024/03/23 03:28:33;;;;;;;0.93;0.77;;;12.50;1.00;;;;;;5035882;28;20496;-88
2024/03/23 03:30:59;;;;;;;0.82;0.82;;;12.50;1.00;;;;;;5013537;28;20038;-93
2024/03/23 03:33:27;;;;;;;1.17;0.68;;;12.40;1.00;;;;;;5035781;28;20026;-91
2024/03/23 03:35:54;;;;;;;7.35;1.60;;;12.40;1.00;;;;;;5015884;28;20038;-91
2024/03/23 03:38:20;;;;;;;2.17;1.33;;;12.30;1.00;;;;;;5016936;28;20053;-92
2024/03/23 03:40:46;;;;;;;2.78;1.45;;;12.20;1.00;;;;;;5037571;28;20048;-91
2024/03/23 03:43:12;;;;;;;3.05;1.73;;;12.10;1.00;;;;;;5041635;28;20041;-90
2024/03/23 03:45:38;;;;;;;1.92;1.45;;;12.00;1.00;;;;;;5039101;28;20037;-90
2024/03/23 03:48:05;;;;;;;1.85;1.75;;;12.10;1.00;;;;;;5077190;23;20084;-88
2024/03/23 03:50:31;;;;;;;1.45;1.35;;;12.10;1.00;;;;;;5043414;28;20033;-91
2024/03/23 03:52:57;;;;;;;0.75;0.75;;;12.20;1.00;;;;;;5036070;28;20029;-90
2024/03/23 03:55:24;;;;;;;2.50;2.30;;;12.30;1.00;;;;;;5030705;28;20033;-89
2024/03/23 03:57:50;;;;;;;1.52;1.42;;;12.40;1.00;;;;;;5021918;28;20331;-93
2024/03/23 04:00:16;;;;;;;1.85;1.75;;;12.30;1.00;;;;;;5014046;28;20048;-85
2024/03/23 04:02:43;;;;;;;2.08;1.75;;;12.30;1.00;;;;;;5054784;28;20045;-90
2024/03/23 04:05:09;;;;;;;3.30;1.83;;;12.30;1.00;;;;;;5056845;28;20034;-89
2024/03/23 04:07:35;;;;;;;0.55;0.52;;;12.30;1.00;;;;;;5038129;28;20038;-85
2024/03/23 04:10:02;;;;;;;1.80;1.67;;;12.30;1.00;;;;;;5032626;28;20053;-92
2024/03/23 04:12:28;;;;;;;2.42;2.22;;;12.20;1.00;;;;;;5025001;28;20360;-91
2024/03/23 04:14:54;;;;;;;1.80;0.55;;;12.20;1.00;;;;;;5037109;28;20033;-87
2024/03/23 04:17:21;;;;;;;1.65;1.27;;;12.20;1.00;;;;;;5039988;28;20038;-92
2024/03/23 04:19:48;;;;;;;2.72;2.08;;;12.20;1.00;;;;;;5036260;28;20029;-85
2024/03/23 04:22:15;;;;;;;0.73;0.73;;;12.10;1.00;;;;;;5047489;28;20041;-85
2024/03/23 04:24:42;;;;;;;2.65;2.05;;;12.10;1.00;;;;;;5041692;28;20037;-93
2024/03/23 04:27:08;;;;;;;1.60;0.88;;;12.20;1.00;;;;;;5008939;28;20049;-93
2024/03/23 04:29:34;;;;;;;2.25;2.05;;;12.20;1.00;;;;;;5034001;28;20029;-92
2024/03/23 04:32:01;;;;;;;1.27;1.23;;;12.20;1.00;;;;;;5050111;28;20393;-91
2024/03/23 04:34:27;;;;;;;0.93;0.80;;;12.20;1.00;;;;;;5010848;28;20052;-87
2024/03/23 04:36:54;;;;;;;2.92;1.52;;;12.10;1.00;;;;;;5035587;28;20033;-94
2024/03/23 04:39:20;;;;;;;1.27;1.05;;;12.10;1.00;;;;;;5015855;28;20045;-91
2024/03/23 04:41:46;;;;;;;2.13;1.92;;;12.20;1.00;;;;;;5028026;28;20029;-92
2024/03/23 04:44:13;;;;;;;0.90;0.90;;;12.10;1.00;;;;;;5019703;28;20034;-91
2024/03/23 04:46:39;;;;;;;1.25;1.20;;;12.00;1.00;;;;;;5033018;28;20056;-84
2024/03/23 04:49:05;;;;;;;1.45;1.35;;;12.00;1.00;;;;;;5034543;28;20033;-86
2024/03/23 04:51:37;;;;;;;0.40;0.40;;;12.00;1.00;;;;;;5036036;28;20033;-82
2024/03/23 04:54:04;;;;;;;0.88;0.88;;;12.00;1.00;;;;;;5031673;28;20450;-84
2024/03/23 04:56:31;;;;;;;2.40;1.38;;;11.90;1.00;;;;;;5021057;28;20393;-82
2024/03/23 04:59:01;;;;;;;0.90;0.65;;;11.90;1.00;;;;;;5025104;28;20667;-89
2024/03/23 05:01:28;;;;;;;2.20;1.40;;;11.90;1.00;;;;;;5033122;28;20033;-83
2024/03/23 05:03:54;;;;;;;1.02;0.85;;;11.80;1.00;;;;;;5015640;28;20053;-91
2024/03/23 05:06:20;;;;;;;1.60;0.77;;;11.70;1.00;;;;;;5032354;28;20030;-86
2024/03/23 05:08:46;;;;;;;1.17;1.08;;;11.70;1.00;;;;;;5028356;28;20033;-85
2024/03/23 05:11:13;;;;;;;0.43;0.43;;;11.70;1.00;;;;;;5023675;28;20122;-93
2024/03/23 05:13:39;;;;;;;0.95;0.63;;;11.70;1.00;;;;;;5028576;28;20041;-88
2024/03/23 05:16:05;;;;;;;0.38;0.38;;;11.60;1.00;;;;;;5020693;28;20057;-84
2024/03/23 05:18:32;;;;;;;1.02;0.50;;;11.50;1.00;;;;;;5030316;28;20033;-85
2024/03/23 05:20:59;;;;;;;0.20;0.20;;;10.90;80.40;;;;;;5031274;28;20034;-80
2024/03/23 05:23:26;;;;;;;0.10;0.10;;;9.70;99.90;;;;;;5029334;28;20041;-80
2024/03/23 05:25:53;;;;;;;0.45;0.45;;;9.10;99.90;;;;;;5021981;28;20033;-83
2024/03/23 05:28:19;;;;;;;0.52;0.40;;;8.80;99.90;;;;;;5026593;28;20036;-81
2024/03/23 05:30:53;;;;;;;0.28;0.28;;;8.60;1.00;;;;;;5031351;28;20465;-83
2024/03/23 05:33:20;;;;;;;0.30;0.30;;;8.60;1.00;;;;;;5028335;28;20045;-80
2024/03/23 05:35:47;;;;;;;0.10;0.10;;;8.50;1.00;;;;;;5011833;28;20034;-82
2024/03/23 05:38:14;;;;;;;4.57;0.63;;;8.30;1.00;;;;;;5027010;28;20037;-83
2024/03/23 05:40:40;;;;;;;0.85;0.85;;;8.30;1.00;;;;;;5029013;28;20021;-83
2024/03/23 05:43:07;;;;;;;1.20;1.10;;;8.30;1.00;;;;;;5022675;28;20059;-81
2024/03/23 05:45:33;;;;;;;0.20;0.20;;;8.20;7.80;;;;;;5032964;28;20042;-78
2024/03/23 05:47:59;;;;;;;0.30;0.30;;;8.20;1.00;;;;;;5031071;28;20065;-86
2024/03/23 05:50:25;;;;;;;0.40;0.40;;;8.20;1.00;;;;;;5032486;28;20038;-83
2024/03/23 05:52:52;;;;;;;0.10;0.10;;;8.20;99.90;;;;;;5021484;28;20057;-82
2024/03/23 05:55:18;;;;;;;0.30;0.30;;;8.20;99.90;;;;;;5026783;28;20037;-85
2024/03/23 05:57:45;;;;;;;0.10;0.10;;;8.20;99.90;;;;;;5042529;28;20048;-84
2024/03/23 06:00:17;;;;;;;0.20;0.20;;;8.10;99.90;;;;;;5042115;28;20034;-81
2024/03/23 06:02:46;;;;;;;0.63;0.63;;;8.10;99.90;;;;;;5037987;28;20037;-82
2024/03/23 06:05:12;;;;;;;0.17;0.17;;;8.00;99.90;;;;;;5031576;28;20037;-81
2024/03/23 06:07:39;;;;;;;0.10;0.10;;;8.10;99.90;;;;;;5027560;28;20484;-82
2024/03/23 06:10:06;;;;;;;0.10;0.10;;;8.10;99.90;;;;;;5046610;28;20128;-81
2024/03/23 06:12:32;;;;;;;0.30;0.30;;;8.10;99.90;;;;;;5017745;28;20033;-83
2024/03/23 06:14:58;;;;;;;0.20;0.20;;;8.10;99.90;;;;;;5020347;28;20472;-80
2024/03/23 06:17:25;;;;;;;0.28;0.28;;;8.10;99.90;;;;;;5025923;28;20038;-81
2024/03/23 06:19:51;;;;;;;0.85;0.52;;;8.10;99.90;;;;;;5023943;28;20390;-80
2024/03/23 06:22:17;;;;;;;0.10;0.10;;;8.20;99.90;;;;;;5027192;28;20370;-83
2024/03/23 06:24:44;;;;;;;0.28;0.28;;;8.20;99.90;;;;;;5024847;28;20081;-81
2024/03/23 06:27:10;;;;;;;0.30;0.30;;;8.20;99.90;;;;;;5027161;28;20041;-81
2024/03/23 06:29:36;;;;;;;0.10;0.10;;;8.30;99.90;;;;;;5006196;28;20045;-81
2024/03/23 06:32:03;;;;;;;0.10;0.10;;;8.30;99.90;;;;;;5045337;28;20033;-84
2024/03/23 06:34:30;;;;;;;0.30;0.30;;;8.30;99.90;;;;;;5032581;28;20033;-83
2024/03/23 06:36:56;;;;;;;0.10;0.10;;;8.30;99.90;;;;;;5029896;28;20379;-81
2024/03/23 06:39:22;;;;;;;0.10;0.10;;;8.40;99.90;;;;;;5004540;28;20496;-82
2024/03/23 06:41:53;;;;;;;0.10;0.10;;;8.40;99.90;;;;;;5031001;28;20041;-79
2024/03/23 06:44:20;;;;;;;0.43;0.28;;;8.40;99.90;;;;;;5032061;28;20041;-81
2024/03/23 06:46:46;;;;;;;0.20;0.20;;;8.30;99.90;;;;;;5028556;28;20050;-80
2024/03/23 06:49:12;;;;;;;0.98;0.68;;;8.30;99.90;;;;;;5032100;28;20496;-82
2024/03/23 06:51:39;;;;;;;0.10;0.10;;;8.30;99.90;;;;;;5031797;28;20041;-83
2024/03/23 06:54:05;;;;;;;0.10;0.10;;;8.30;99.90;;;;;;5030667;28;20034;-82
2024/03/23 06:56:31;;;;;;;0.10;0.10;;;8.30;99.90;;;;;;5026178;28;20030;-82
2024/03/23 06:58:59;;;;;;;0.10;0.10;;;8.40;99.90;;;;;;5005613;28;20125;-81
2024/03/23 07:01:25;;;;;;;0.20;0.20;;;8.50;99.90;;;;;;5031161;28;20041;-83
2024/03/23 07:03:51;;;;;;;0.10;0.10;;;8.60;99.90;;;;;;5031287;28;20037;-82
2024/03/23 07:06:17;;;;;;;0.10;0.10;;;8.60;99.90;;;;;;5010948;28;20045;-83
2024/03/23 07:08:43;;;;;;;0.10;0.10;;;8.50;99.90;;;;;;5026931;28;20045;-82
2024/03/23 07:11:10;;;;;;;0.10;0.10;;;8.50;99.90;;;;;;5031046;28;20052;-85
2024/03/23 07:13:36;;;;;;;0.10;0.10;;;8.40;99.90;;;;;;5019561;28;20046;-84
2024/03/23 07:16:02;;;;;;;0.10;0.10;;;8.50;99.90;;;;;;5035745;28;20048;-86
2024/03/23 07:18:28;;;;;;;0.10;0.10;;;8.40;97.70;;;;;;5032056;28;20040;-84
2024/03/23 07:20:58;;;;;;;1.05;0.75;;;8.50;96.90;;;;;;5034182;28;20056;-80
2024/03/23 07:23:25;;;;;;;0.10;0.10;;;8.30;1.00;;;;;;5028770;28;20484;-81
2024/03/23 07:26:01;;;;;;;0.10;0.10;;;8.40;1.00;;;;;;5015608;28;20050;-80
2024/03/23 07:28:31;;;;;;;0.10;0.10;;;8.60;1.00;;;;;;5025171;28;20038;-83
2024/03/23 07:31:15;;;;;;;1.75;0.55;;;8.70;1.00;;;;;;5033914;28;20029;-83
2024/03/23 07:33:44;;;;;;;0.10;0.10;;;8.60;1.00;;;;;;5033707;28;20030;-81
2024/03/23 07:36:10;;;;;;;0.10;0.10;;;8.60;1.00;;;;;;5032129;28;20037;-79
2024/03/23 07:38:36;;;;;;;0.10;0.10;;;8.50;1.00;;;;;;5026161;28;20386;-80
2024/03/23 07:41:07;;;;;;;0.10;0.10;;;8.30;1.00;;;;;;5008449;28;20129;-82
2024/03/23 07:43:34;;;;;;;0.10;0.10;;;8.30;1.00;;;;;;5025393;28;20044;-83
2024/03/23 07:46:00;;;;;;;0.10;0.10;;;8.20;1.00;;;;;;5033014;28;20034;-81
2024/03/23 07:48:28;;;;;;;0.10;0.10;;;8.20;1.00;;;;;;5008948;28;20054;-84
2024/03/23 07:50:59;;;;;;;0.10;0.10;;;8.30;1.00;;;;;;5032059;28;20038;-86
2024/03/23 07:53:26;;;;;;;0.10;0.10;;;8.40;1.00;;;;;;5010759;28;20483;-80
2024/03/23 07:55:55;;;;;;;0.10;0.10;;;8.30;1.00;;;;;;5006684;28;20057;-83
2024/03/23 07:58:22;;;;;;;0.10;0.10;;;8.40;1.00;;;;;;5033439;28;20029;-85
2024/03/23 08:00:48;;;;;;;0.43;0.40;;;8.50;1.00;;;;;;5034314;28;20025;-82
2024/03/23 08:03:14;;;;;;;0.10;0.10;;;8.60;1.00;;;;;;5035800;28;20040;-84
2024/03/23 08:05:40;;;;;;;0.10;0.10;;;8.60;1.00;;;;;;5048558;28;20037;-81
2024/03/23 08:08:06;;;;;;;0.10;0.10;;;8.80;1.00;;;;;;5026805;28;20017;-84
2024/03/23 08:10:32;;;;;;;0.10;0.10;;;9.00;1.00;;;;;;5013028;28;20022;-79
2024/03/23 08:13:00;;;;;;;0.30;0.30;;;8.90;1.00;;;;;;5019999;28;20025;-82
2024/03/23 08:15:26;;;;;;;0.13;0.13;;;8.80;1.00;;;;;;5034437;28;20397;-85
2024/03/23 08:17:52;;;;;;;0.25;0.20;;;8.90;1.00;;;;;;5034126;28;20046;-83
2024/03/23 08:20:18;;;;;;;0.10;0.10;;;9.00;1.00;;;;;;5014559;28;20041;-82
2024/03/23 08:22:44;;;;;;;0.30;0.30;;;9.00;1.00;;;;;;5015193;28;20246;-84
2024/03/23 08:25:11;;;;;;;0.20;0.20;;;9.00;1.00;;;;;;5032338;28;20033;-85
2024/03/23 08:27:37;;;;;;;0.10;0.10;;;9.00;99.90;;;;;;5010211;28;20034;-84
2024/03/23 08:30:03;;;;;;;0.40;0.40;;;9.10;99.90;;;;;;5038217;28;20056;-85
2024/03/23 08:32:29;;;;;;;0.70;0.70;;;9.20;99.90;;;;;;5032425;28;20140;-86
2024/03/23 08:34:55;;;;;;;0.20;0.20;;;9.60;99.90;;;;;;5030923;28;20042;-86
2024/03/23 08:37:23;;;;;;;0.20;0.20;;;9.90;99.90;;;;;;5029260;28;20064;-82
2024/03/23 08:39:51;;;;;;;0.32;0.30;;;10.00;99.90;;;;;;5025206;28;20343;-82
2024/03/23 08:42:17;;;;;;;0.55;0.55;;;9.70;99.90;;;;;;5011472;28;20489;-84
2024/03/23 08:44:46;;;;;;;0.40;0.40;;;10.00;99.90;;;;;;5032778;28;20029;-81
2024/03/23 08:47:12;;;;;;;0.20;0.20;;;10.30;99.90;;;;;;5031753;28;20053;-86
2024/03/23 08:49:38;;;;;;;0.38;0.38;;;10.30;99.90;;;;;;5014176;28;20048;-81
2024/03/23 08:52:05;;;;;;;0.17;0.17;;;10.30;99.90;;;;;;5025978;28;20056;-80
2024/03/23 08:54:31;;;;;;;0.50;0.50;;;10.00;99.90;;;;;;5019127;28;20044;-84
2024/03/23 08:56:57;;;;;;;0.10;0.10;;;10.30;99.90;;;;;;5007023;28;20053;-81
2024/03/23 08:59:23;;;;;;;1.48;0.93;;;10.30;99.90;;;;;;5031293;28;20041;-83
2024/03/23 09:01:49;;;;;;;0.15;0.15;;;10.20;99.90;;;;;;5032250;28;20033;-88
2024/03/23 09:04:16;;;;;;;0.75;0.25;;;10.50;99.90;;;;;;5018672;28;20042;-81
2024/03/23 09:06:46;;;;;;;0.20;0.20;;;10.20;99.90;;;;;;5028601;28;20049;-81
2024/03/23 09:09:12;;;;;;;0.88;0.68;;;10.50;99.90;;;;;;5026837;28;20029;-84
2024/03/23 09:11:38;;;;;;;0.10;0.10;;;10.70;99.90;;;;;;5019094;28;20037;-85
2024/03/23 09:14:05;;;;;;;4.38;1.50;;;10.60;99.90;;;;;;5012072;28;20504;-82
2024/03/23 09:16:31;;;;;;;0.10;0.10;;;10.50;99.90;;;;;;5030555;28;20045;-83
2024/03/23 09:18:57;;;;;;;1.55;0.45;;;10.20;99.90;;;;;;5032583;28;20034;-80
2024/03/23 09:21:23;;;;;;;0.25;0.15;;;10.00;99.90;;;;;;5027966;28;20033;-81
2024/03/23 09:23:49;;;;;;;0.13;0.13;;;10.00;99.90;;;;;;5025945;28;20473;-84
2024/03/23 09:26:15;;;;;;;0.10;0.10;;;10.00;99.90;;;;;;5027301;28;20033;-86
2024/03/23 09:28:42;;;;;;;0.25;0.25;;;10.10;99.90;;;;;;5003367;28;20037;-82
2024/03/23 09:31:13;;;;;;;0.45;0.45;;;10.00;99.90;;;;;;5014124;28;20044;-81
2024/03/23 09:33:39;;;;;;;0.22;0.20;;;10.00;99.90;;;;;;5011456;28;20034;-79
2024/03/23 09:36:07;;;;;;;0.63;0.60;;;9.90;99.90;;;;;;5029863;28;20036;-79
2024/03/23 09:38:34;;;;;;;0.20;0.20;;;9.70;99.90;;;;;;5010095;28;20481;-81
2024/03/23 09:41:00;;;;;;;0.40;0.40;;;10.00;99.90;;;;;;5024162;28;20374;-79
2024/03/23 09:43:26;;;;;;;0.20;0.20;;;10.10;99.90;;;;;;5027599;28;20044;-80
2024/03/23 09:45:53;;;;;;;0.52;0.52;;;10.00;99.90;;;;;;5013881;28;20048;-81
2024/03/23 09:48:20;;;;;;;0.10;0.10;;;10.20;99.90;;;;;;5030731;28;20053;-79
2024/03/23 09:50:46;;;;;;;0.82;0.80;;;10.30;99.90;;;;;;5030764;28;20458;-82
2024/03/23 09:53:13;;;;;;;0.43;0.43;;;10.40;99.90;;;;;;5024821;28;20056;-81
2024/03/23 09:55:41;;;;;;;0.80;0.50;;;10.30;99.90;;;;;;5024103;28;20389;-81
2024/03/23 09:58:08;;;;;;;0.10;0.10;;;10.30;99.90;;;;;;5027499;28;20033;-82
2024/03/23 10:00:35;;;;;;;0.82;0.82;;;10.30;99.90;;;;;;5027709;28;20044;-82
2024/03/23 10:03:02;;;;;;;0.32;0.32;;;10.40;99.90;;;;;;5031505;28;20033;-81
2024/03/23 10:05:39;;;;;;;0.80;0.55;;;10.40;99.90;;;;;;5027572;28;20045;-81
2024/03/23 10:08:15;;;;;;;0.30;0.30;;;10.30;99.90;;;;;;5016672;28;20042;-81
2024/03/23 10:10:46;;;;;;;1.38;0.85;;;10.50;99.90;;;;;;5022895;28;20462;-85
2024/03/23 10:13:24;;;;;;;1.05;0.93;;;10.70;99.90;;;;;;5023293;28;20045;-81
2024/03/23 10:15:59;;;;;;;1.75;0.68;;;10.80;99.90;;;;;;5028198;28;20048;-79
2024/03/23 10:18:28;;;;;;;0.17;0.17;;;10.60;99.90;;;;;;5032565;28;20046;-78
2024/03/23 10:21:08;;;;;;;0.10;0.10;;;10.60;99.90;;;;;;5028171;28;20476;-79
2024/03/23 10:23:35;;;;;;;0.10;0.10;;;10.70;99.90;;;;;;5036170;28;20037;-80
2024/03/23 10:26:27;;;;;;;0.10;0.10;;;10.90;99.90;;;;;;5013656;28;20048;-83
2024/03/23 10:28:58;;;;;;;2.55;0.20;;;11.00;98.70;;;;;;5030552;28;20037;-85
2024/03/23 10:31:25;;;;;;;0.13;0.13;;;11.10;99.00;;;;;;5027112;28;20033;-85
2024/03/23 10:33:54;;;;;;;0.73;0.20;;;10.80;99.00;;;;;;5031508;28;20029;-83
2024/03/23 10:36:22;;;;;;;0.10;0.10;;;10.70;97.80;;;;;;5009718;28;20568;-81
2024/03/23 10:38:50;;;;;;;0.28;0.28;;;10.70;97.80;;;;;;5026086;28;20036;-83
2024/03/23 10:41:17;;;;;;;0.10;0.10;;;10.50;97.00;;;;;;5012494;28;20106;-83
2024/03/23 10:43:45;;;;;;;0.63;0.55;;;10.40;99.60;;;;;;5030835;28;20097;-82
2024/03/23 10:46:12;;;;;;;0.30;0.30;;;10.40;97.10;;;;;;5033815;28;20045;-84
2024/03/23 10:48:39;;;;;;;2.40;0.68;;;10.30;97.10;;;;;;5029129;28;20049;-84
2024/03/23 10:51:08;;;;;;;0.73;0.73;;;10.40;99.90;;;;;;5025325;28;20058;-81
2024/03/23 10:53:36;;;;;;;2.45;0.93;;;10.60;95.00;;;;;;5024251;28;20381;-80
2024/03/23 10:56:04;;;;;;;0.20;0.17;;;10.60;91.20;;;;;;5012850;28;20046;-84
2024/03/23 10:58:40;;;;;;;1.55;1.23;;;10.70;92.90;;;;;;5013322;28;20037;-81
2024/03/23 11:01:07;;;;;;;6.32;0.85;;;10.80;91.60;;;;;;5030006;28;20033;-81
2024/03/23 11:03:38;;;;;;;0.35;0.35;;;10.80;92.50;;;;;;5028743;28;20037;-82
2024/03/23 11:06:05;;;;;;;0.13;0.13;;;11.10;91.20;;;;;;5027603;28;20060;-80
2024/03/23 11:08:32;;;;;;;1.17;0.93;;;11.20;90.20;;;;;;5021511;28;20026;-82
2024/03/23 11:11:18;;;;;;;0.77;0.77;;;11.30;90.20;;;;;;5023530;28;20049;-85
2024/03/23 11:13:48;;;;;;;1.75;0.45;;;11.30;87.60;;;;;;5031645;28;20038;-81
2024/03/23 11:16:23;;;;;;;0.85;0.40;;;11.20;81.90;;;;;;5037902;28;20044;-86
2024/03/23 11:18:50;;;;;;;0.98;0.57;;;11.10;87.40;;;;;;5028381;28;20057;-85
2024/03/23 11:21:53;;;;;;;0.35;0.35;;;10.90;90.50;;;;;;5027448;28;20033;-84
2024/03/23 11:24:21;;;;;;;0.25;0.25;;;11.00;87.30;;;;;;5028510;28;20030;-80
2024/03/23 11:26:48;;;;;;;0.40;0.35;;;10.90;87.90;;;;;;5026576;28;20037;-85
2024/03/23 11:29:17;;;;;;;0.10;0.10;;;10.30;99.90;;;;;;5034199;28;20037;-83
2024/03/23 11:31:47;;;;;;;0.10;0.10;;;9.00;99.90;;;;;;5030528;28;20075;-82
2024/03/23 11:34:15;;;;;;;0.10;0.10;;;8.60;99.90;;;;;;5032127;28;20143;-84
2024/03/23 11:36:42;;;;;;;0.22;0.22;;;8.60;99.90;;;;;;5031054;28;20038;-85
2024/03/23 11:39:20;;;;;;;0.10;0.10;;;8.40;99.90;;;;;;5025057;28;20037;-84
2024/03/23 11:41:54;;;;;;;0.10;0.10;;;8.20;99.90;;;;;;5019092;28;20045;-87
2024/03/23 11:44:22;;;;;;;0.20;0.20;;;7.70;99.90;;;;;;5027358;28;20038;-82
2024/03/23 11:46:49;;;;;;;0.10;0.10;;;7.50;99.90;;;;;;5030642;28;20061;-90
2024/03/23 11:49:26;;;;;;;0.90;0.85;;;7.40;99.90;;;;;;5046764;28;20045;-87
2024/03/23 11:51:54;;;;;;;0.15;0.15;;;7.30;99.90;;;;;;5026729;28;20485;-88
2024/03/23 11:54:24;;;;;;;0.82;0.47;;;7.20;1.00;;;;;;5004561;28;20049;-81
2024/03/23 11:56:54;;;;;;;0.10;0.10;;;7.10;1.00;;;;;;5008798;28;20053;-82
2024/03/23 11:59:37;;;;;;;0.10;0.10;;;7.20;99.90;;;;;;5031941;28;20038;-84
2024/03/23 12:02:09;;;;;;;0.10;0.10;;;7.70;7.40;;;;;;5016413;28;20045;-83
2024/03/23 12:04:37;;;;;;;0.10;0.10;;;8.00;1.00;;;;;;5048739;28;20068;-83
2024/03/23 12:07:13;;;;;;;0.50;0.50;;;8.30;1.00;;;;;;5035141;28;20060;-84
2024/03/23 12:09:42;;;;;;;0.10;0.10;;;8.80;1.00;;;;;;5031527;28;20038;-81
2024/03/23 12:12:14;;;;;;;0.10;0.10;;;9.00;99.90;;;;;;5036408;28;20041;-83
2024/03/23 12:14:41;;;;;;;0.85;0.85;;;8.80;99.90;;;;;;5013554;28;20045;-88
2024/03/23 12:17:10;;;;;;;0.40;0.40;;;9.20;99.90;;;;;;5029445;28;20377;-87
2024/03/23 12:19:37;;;;;;;0.57;0.30;;;9.20;99.90;;;;;;5029787;28;20033;-83
2024/03/23 12:22:05;;;;;;;0.55;0.55;;;9.10;99.90;;;;;;5031118;28;20030;-85
2024/03/23 12:24:34;;;;;;;0.30;0.30;;;9.30;99.90;;;;;;5028003;28;20033;-83
2024/03/23 12:27:07;;;;;;;0.10;0.10;;;9.50;99.90;;;;;;5024660;28;20044;-84
2024/03/23 12:29:33;;;;;;;0.20;0.20;;;9.40;99.90;;;;;;5044022;28;20022;-84
2024/03/23 12:32:03;;;;;;;0.50;0.50;;;9.40;99.90;;;;;;5013569;28;20038;-83
2024/03/23 12:34:30;;;;;;;2.20;0.80;;;9.30;99.90;;;;;;5036687;28;20037;-87
2024/03/23 12:36:56;;;;;;;2.40;1.35;;;9.10;99.90;;;;;;5030091;28;20033;-85
2024/03/23 12:39:23;;;;;;;0.10;0.10;;;9.10;99.90;;;;;;5012349;28;20067;-83
2024/03/23 12:41:49;;;;;;;0.20;0.20;;;9.10;99.90;;;;;;5023827;28;20442;-81
2024/03/23 12:44:16;;;;;;;0.10;0.10;;;9.20;99.90;;;;;;5036300;28;20033;-85
2024/03/23 12:46:42;;;;;;;0.30;0.30;;;9.30;99.90;;;;;;5038003;28;20060;-84
2024/03/23 12:49:08;;;;;;;7.65;1.23;;;9.40;99.90;;;;;;5040136;28;20398;-83
2024/03/23 12:51:35;;;;;;;0.15;0.15;;;9.40;99.90;;;;;;5026556;28;20034;-83
2024/03/23 12:54:01;;;;;;;0.22;0.22;;;9.40;99.90;;;;;;5026416;28;20041;-81
2024/03/23 12:56:30;;;;;;;0.10;0.10;;;9.40;99.90;;;;;;5025219;28;20048;-82